Time;durP1;ratioP1;P1;durP2;ratioP2;P2;SDS_P1;SDS_P2;PMS_P1;PMS_P2;Temp;Humidity;BMP_temperature;BMP_pressure;BME280_temperature;BME280_humidity;BME280_pressure;Samples;Min_cycle;Max_cycle;Signal;HPM_P1;HPM_P2
2022/03/30 03:38:11;;;;;;;17.37;8.40;;;11.00;99.90;;;11.42;nan;99283.34;5017608;28;20658;-73
2022/03/30 03:40:40;;;;;;;20.13;9.43;;;11.00;99.90;;;11.38;nan;99292.44;5004482;28;20640;-71
2022/03/30 03:43:07;;;;;;;16.63;9.63;;;11.00;99.90;;;11.33;nan;99289.44;5012277;28;20656;-70
2022/03/30 03:45:34;;;;;;;19.47;10.83;;;10.90;99.90;;;11.41;nan;99280.88;5030410;28;20627;-70
2022/03/30 03:48:02;;;;;;;22.37;11.03;;;11.00;99.90;;;11.30;nan;99275.88;5029490;28;20629;-70
2022/03/30 03:50:29;;;;;;;20.57;10.40;;;10.90;99.90;;;11.31;nan;99272.25;5031158;28;20619;-72
2022/03/30 03:52:55;;;;;;;23.37;10.97;;;10.90;99.90;;;11.35;nan;99274.44;5013830;28;20637;-70
2022/03/30 03:55:23;;;;;;;21.07;10.63;;;10.90;99.90;;;11.30;nan;99275.88;5030481;28;20625;-70
2022/03/30 03:57:50;;;;;;;24.60;11.20;;;10.90;99.90;;;11.30;nan;99268.03;5012065;28;20637;-71
2022/03/30 04:00:18;;;;;;;18.97;10.10;;;10.90;99.90;;;11.32;nan;99269.53;5031982;28;21203;-71
2022/03/30 04:02:46;;;;;;;18.10;9.70;;;10.90;99.90;;;11.23;nan;99278.25;5008632;28;20661;-72
2022/03/30 04:05:14;;;;;;;21.87;11.90;;;10.80;99.90;;;11.19;nan;99270.84;5027277;28;20644;-68
2022/03/30 04:07:41;;;;;;;21.20;12.13;;;10.80;99.90;;;11.29;nan;99269.81;5030037;28;20647;-70
2022/03/30 04:10:10;;;;;;;21.23;11.90;;;10.90;99.90;;;11.31;nan;99261.81;5021095;28;20641;-71
2022/03/30 04:12:40;;;;;;;19.43;11.00;;;10.90;99.90;;;11.29;nan;99261.16;5031077;28;20658;-70
2022/03/30 04:15:09;;;;;;;18.07;10.10;;;10.90;99.90;;;11.16;nan;99260.72;4997458;28;20683;-72
2022/03/30 04:17:44;;;;;;;20.13;10.97;;;10.80;99.90;;;11.05;nan;99261.75;5013348;28;20655;-73
2022/03/30 04:20:12;;;;;;;15.90;7.97;;;10.70;99.90;;;11.08;nan;99258.00;5030479;28;20620;-74
2022/03/30 04:22:43;;;;;;;19.27;10.87;;;10.70;99.90;;;11.06;nan;99258.16;5018779;28;21274;-71
2022/03/30 04:25:11;;;;;;;22.97;10.57;;;10.60;99.90;;;11.11;nan;99261.16;5012357;28;20637;-72
2022/03/30 04:27:47;;;;;;;20.57;11.20;;;10.70;99.90;;;11.20;nan;99262.84;5030926;28;20624;-71
2022/03/30 04:30:16;;;;;;;22.33;12.07;;;10.80;99.90;;;11.22;nan;99262.72;5012708;28;20632;-71
2022/03/30 04:32:44;;;;;;;20.70;11.03;;;10.80;99.90;;;11.24;nan;99258.19;5009666;28;21244;-71
2022/03/30 04:35:14;;;;;;;23.87;10.73;;;10.80;99.90;;;11.17;nan;99249.28;5019570;28;20665;-71
2022/03/30 04:37:41;;;;;;;22.67;11.90;;;10.80;99.90;;;11.15;nan;99254.66;4997615;28;20636;-71
2022/03/30 04:40:09;;;;;;;21.47;11.27;;;10.80;99.90;;;11.12;nan;99256.72;5012351;28;20630;-70
2022/03/30 04:42:36;;;;;;;23.37;12.23;;;10.80;99.90;;;11.10;nan;99256.88;5010548;28;20660;-71
2022/03/30 04:45:04;;;;;;;24.33;13.20;;;10.70;99.90;;;11.08;nan;99258.81;5029696;28;20660;-71
2022/03/30 04:47:32;;;;;;;25.87;12.43;;;10.70;99.90;;;11.12;nan;99256.72;5030175;28;20980;-73
2022/03/30 04:49:59;;;;;;;20.50;11.43;;;10.70;99.90;;;11.11;nan;99263.75;5029211;28;20648;-71
2022/03/30 04:52:26;;;;;;;19.20;9.87;;;10.70;99.90;;;11.14;nan;99267.88;5013018;28;20668;-71
2022/03/30 04:54:53;;;;;;;20.00;11.00;;;10.70;99.90;;;11.09;nan;99268.31;5029901;28;21053;-71
2022/03/30 04:57:20;;;;;;;18.17;9.67;;;10.70;99.90;;;11.12;nan;99275.00;5011071;28;21011;-72
2022/03/30 04:59:47;;;;;;;22.13;10.03;;;10.70;99.90;;;11.12;nan;99275.81;5022883;28;20623;-70
2022/03/30 05:02:14;;;;;;;15.07;8.00;;;10.70;99.90;;;11.14;nan;99283.53;5028112;28;20665;-71
2022/03/30 05:04:42;;;;;;;17.40;8.97;;;10.70;99.90;;;11.20;nan;99288.16;5030066;28;20686;-71
2022/03/30 05:19:28;;;;;;;12.60;5.90;;;10.90;99.90;;;11.26;nan;99292.78;5011194;28;20608;-70
2022/03/30 05:21:55;;;;;;;15.67;7.70;;;10.90;99.90;;;11.27;nan;99294.41;5017277;28;20657;-74
2022/03/30 05:24:22;;;;;;;14.87;8.17;;;10.90;99.90;;;11.18;nan;99297.94;5028649;28;20639;-70
2022/03/30 05:26:50;;;;;;;16.83;6.93;;;10.80;99.90;;;11.13;nan;99292.31;5029936;28;20643;-70
2022/03/30 05:29:17;;;;;;;23.30;11.40;;;10.80;99.90;;;11.08;nan;99294.53;5029652;28;20632;-70
2022/03/30 05:31:45;;;;;;;33.63;13.33;;;10.70;99.90;;;11.08;nan;99289.31;5028661;28;20657;-71
2022/03/30 05:34:32;;;;;;;21.27;10.93;;;10.80;99.90;;;11.13;nan;99289.72;5010023;28;21017;-70
2022/03/30 05:36:59;;;;;;;27.00;12.77;;;10.80;99.90;;;11.11;nan;99291.63;5011496;28;20637;-71
2022/03/30 05:39:26;;;;;;;27.53;13.00;;;10.80;99.90;;;11.07;nan;99290.28;5030447;28;20628;-72
2022/03/30 05:41:53;;;;;;;30.53;15.50;;;10.80;99.90;;;11.03;nan;99287.13;5010573;28;20664;-71
2022/03/30 05:44:20;;;;;;;31.23;16.03;;;10.70;99.90;;;10.94;nan;99296.66;5029485;28;21210;-71
2022/03/30 05:46:48;;;;;;;29.37;15.37;;;10.70;99.90;;;10.95;nan;99294.88;4991459;28;20679;-71
2022/03/30 05:49:16;;;;;;;28.70;13.33;;;10.60;99.90;;;10.97;nan;99290.31;5010245;28;20640;-71
2022/03/30 05:51:44;;;;;;;33.30;15.80;;;10.50;99.90;;;10.84;nan;99290.66;5015385;28;21239;-71
2022/03/30 05:54:11;;;;;;;37.47;16.90;;;10.50;99.90;;;10.89;nan;99285.84;5011116;28;20672;-72
2022/03/30 05:59:24;;;;;;;41.23;18.67;;;10.50;99.90;;;10.67;nan;99286.19;5015618;28;20632;-71
2022/03/30 06:01:51;;;;;;;40.77;20.23;;;10.40;99.90;;;10.50;nan;99293.97;5027952;28;20661;-71
2022/03/30 06:04:18;;;;;;;37.83;20.40;;;10.20;99.90;;;10.61;nan;99294.59;5005138;28;20785;-71
2022/03/30 06:06:45;;;;;;;38.27;21.00;;;10.30;99.90;;;10.59;nan;99293.09;4995117;28;20637;-71
2022/03/30 06:09:12;;;;;;;36.83;20.70;;;10.30;99.90;;;10.44;nan;99290.13;5012776;28;20651;-74
2022/03/30 06:11:39;;;;;;;36.30;16.53;;;10.30;99.90;;;10.43;nan;99298.09;5030268;28;21025;-72
2022/03/30 06:14:06;;;;;;;40.47;19.60;;;10.10;99.90;;;10.46;nan;99288.19;5032356;28;20740;-74
2022/03/30 06:16:34;;;;;;;36.27;21.27;;;10.10;99.90;;;10.40;nan;99285.34;5031519;28;21215;-71
2022/03/30 06:19:02;;;;;;;41.80;17.60;;;10.10;99.90;;;10.37;nan;99288.25;5016066;28;20631;-71
2022/03/30 06:21:30;;;;;;;34.97;19.00;;;10.10;99.90;;;10.37;nan;99283.81;5014794;28;20624;-72
2022/03/30 06:23:58;;;;;;;37.60;18.00;;;10.10;99.90;;;10.31;nan;99284.41;5032681;28;20636;-71
2022/03/30 06:26:25;;;;;;;37.13;17.63;;;10.00;99.90;;;10.30;nan;99284.53;5014408;28;20644;-72
2022/03/30 06:28:53;;;;;;;38.30;18.43;;;10.00;99.90;;;10.29;nan;99288.94;4979893;28;20640;-71
2022/03/30 06:31:20;;;;;;;35.60;19.23;;;10.00;99.90;;;10.32;nan;99301.69;4979111;28;21428;-70
2022/03/30 06:33:49;;;;;;;36.23;16.23;;;10.00;99.90;;;10.33;nan;99305.13;5011018;28;20644;-71
2022/03/30 06:36:16;;;;;;;35.50;16.03;;;10.00;99.90;;;10.30;nan;99303.63;5015083;28;20632;-71
2022/03/30 06:38:44;;;;;;;42.70;20.37;;;10.00;99.90;;;10.34;nan;99298.94;5023638;28;21199;-72
2022/03/30 06:41:17;;;;;;;35.63;15.50;;;10.10;99.90;;;10.42;nan;99312.91;5032400;28;21184;-71
2022/03/30 06:43:46;;;;;;;36.80;16.30;;;10.10;99.90;;;10.44;nan;99310.16;5015668;28;20665;-72
2022/03/30 06:46:18;;;;;;;40.60;21.00;;;10.10;99.90;;;10.29;nan;99296.75;4997342;28;20624;-70
2022/03/30 06:48:46;;;;;;;43.53;22.77;;;10.00;99.90;;;10.14;nan;99298.16;5005793;28;21217;-73
2022/03/30 06:51:14;;;;;;;40.87;19.70;;;9.90;99.90;;;10.23;nan;99301.69;5031642;28;20682;-70
2022/03/30 06:53:42;;;;;;;36.77;18.70;;;9.90;99.90;;;10.24;nan;99298.97;5028192;28;20664;-72
2022/03/30 06:56:10;;;;;;;37.97;18.50;;;9.90;99.90;;;10.22;nan;99300.91;5031711;28;20629;-72
2022/03/30 06:58:37;;;;;;;42.10;21.03;;;9.90;99.90;;;10.06;nan;99305.81;5012944;28;20629;-68
2022/03/30 07:01:04;;;;;;;40.03;18.10;;;9.80;99.90;;;10.05;nan;99307.59;5014263;28;20621;-70
2022/03/30 07:03:31;;;;;;;39.70;18.87;;;9.70;99.90;;;9.90;nan;99295.16;5013903;28;20639;-68
2022/03/30 07:06:03;;;;;;;47.03;22.40;;;9.60;99.90;;;9.88;nan;99300.47;5031897;28;20628;-70
2022/03/30 07:11:15;;;;;;;44.27;19.63;;;9.50;99.90;;;9.94;nan;99286.91;5010854;28;21054;-71
2022/03/30 07:13:42;;;;;;;46.57;18.77;;;9.60;99.90;;;10.02;nan;99294.84;5031001;28;20668;-70
2022/03/30 07:16:09;;;;;;;41.50;18.17;;;9.70;99.90;;;10.04;nan;99287.72;5019268;28;20664;-72
2022/03/30 07:18:37;;;;;;;38.63;18.40;;;9.70;99.90;;;10.05;nan;99284.13;5008204;28;20651;-72
2022/03/30 07:21:04;;;;;;;33.73;13.03;;;9.70;99.90;;;10.02;nan;99278.41;5028877;28;20651;-70
2022/03/30 07:23:31;;;;;;;0.30;0.30;;;9.70;99.90;;;10.01;nan;99276.72;5002834;28;20998;-71
2022/03/30 07:26:00;;;;;;;0.20;0.20;;;9.70;99.90;;;9.94;nan;99284.31;5026020;28;20636;-73
2022/03/30 07:28:27;;;;;;;0.20;0.20;;;9.70;99.90;;;9.96;nan;99281.56;5028505;28;20640;-71
2022/03/30 07:30:54;;;;;;;0.20;0.20;;;9.70;99.90;;;9.95;nan;99279.91;5012358;28;20941;-71
2022/03/30 07:33:23;;;;;;;0.30;0.30;;;9.70;99.90;;;10.04;nan;99279.91;5005433;28;20714;-67
2022/03/30 07:35:50;;;;;;;0.33;0.33;;;9.70;99.90;;;9.69;nan;99276.25;5015587;28;20680;-72
2022/03/30 07:38:19;;;;;;;0.20;0.20;;;9.60;99.90;;;9.82;nan;99284.56;5030411;28;21412;-72
2022/03/30 07:40:49;;;;;;;0.20;0.20;;;9.60;99.90;;;9.83;nan;99287.06;5012561;28;20625;-73
2022/03/30 07:43:18;;;;;;;1.43;0.73;;;9.60;99.90;;;9.92;nan;99286.19;5027019;28;20667;-71
2022/03/30 07:45:46;;;;;;;0.20;0.20;;;9.60;99.90;;;9.89;nan;99286.50;4996791;28;20628;-70
2022/03/30 07:48:13;;;;;;;0.30;0.30;;;9.60;99.90;;;9.77;nan;99286.78;5017390;28;21009;-72
2022/03/30 07:50:41;;;;;;;1.37;1.27;;;9.60;99.90;;;9.85;nan;99287.75;5001837;28;20638;-71
2022/03/30 07:53:08;;;;;;;0.20;0.20;;;9.60;99.90;;;9.84;nan;99285.25;5027383;28;20671;-73
2022/03/30 07:55:38;;;;;;;0.20;0.20;;;9.60;99.90;;;9.90;nan;99285.53;5024452;28;20676;-73
2022/03/30 07:58:06;;;;;;;0.53;0.53;;;9.60;99.90;;;9.96;nan;99286.78;5010706;28;20640;-73
2022/03/30 08:00:34;;;;;;;0.20;0.20;;;9.60;99.90;;;9.89;nan;99289.09;5011120;28;20624;-68
2022/03/30 08:03:01;;;;;;;1.37;0.93;;;9.60;99.90;;;9.87;nan;99292.81;5005389;28;20653;-72
2022/03/30 08:05:29;;;;;;;0.20;0.20;;;9.50;99.90;;;9.92;nan;99293.22;5025436;28;20637;-73
2022/03/30 08:07:56;;;;;;;0.20;0.20;;;9.60;99.90;;;9.91;nan;99286.34;5027442;28;20637;-73
2022/03/30 08:10:23;;;;;;;0.97;0.97;;;9.60;99.90;;;10.11;nan;99298.44;5006230;28;20966;-71
2022/03/30 08:12:50;;;;;;;0.30;0.30;;;9.80;99.90;;;10.13;nan;99296.53;5006019;28;20680;-71
2022/03/30 08:15:17;;;;;;;0.27;0.27;;;9.80;99.90;;;10.21;nan;99298.41;5010893;28;20665;-70
2022/03/30 08:17:44;;;;;;;0.20;0.20;;;9.90;99.90;;;10.04;nan;99292.09;5005709;28;20676;-70
2022/03/30 08:22:25;;;;;;;0.20;0.20;;;9.90;99.90;;;10.23;nan;99297.31;5010727;28;20625;-71
2022/03/30 08:23:00;;;;;;;0.20;0.20;;;9.90;99.90;;;10.21;nan;99294.03;5013217;28;20664;-71
2022/03/30 08:25:27;;;;;;;0.20;0.20;;;10.00;99.90;;;10.23;nan;99301.69;5013683;28;20616;-68
2022/03/30 08:27:54;;;;;;;0.20;0.20;;;10.00;99.90;;;10.28;nan;99300.34;5027577;28;20647;-73
2022/03/30 08:30:21;;;;;;;0.20;0.20;;;10.00;99.90;;;10.25;nan;99295.38;5021191;28;20692;-70
2022/03/30 08:32:48;;;;;;;0.30;0.30;;;10.00;99.90;;;10.25;nan;99292.78;5019948;28;20696;-74
2022/03/30 08:35:16;;;;;;;0.97;0.97;;;10.10;99.90;;;10.04;nan;99297.31;5012086;28;20656;-74
2022/03/30 08:37:43;;;;;;;0.30;0.30;;;9.90;99.90;;;9.97;nan;99281.41;5024323;28;20637;-70
2022/03/30 08:40:10;;;;;;;0.60;0.60;;;9.80;99.90;;;9.88;nan;99290.03;5010138;28;20636;-69
2022/03/30 08:42:40;;;;;;;0.30;0.30;;;9.70;99.90;;;9.93;nan;99287.03;5027418;28;21247;-70
2022/03/30 08:45:09;;;;;;;0.20;0.20;;;9.70;99.90;;;9.93;nan;99285.25;5010226;28;20641;-68
2022/03/30 08:47:37;;;;;;;0.20;0.20;;;9.70;99.90;;;10.06;nan;99284.97;5006297;28;20641;-68
2022/03/30 08:50:05;;;;;;;0.30;0.30;;;9.70;99.90;;;10.10;nan;99283.72;5027062;28;20636;-70
2022/03/30 08:52:33;;;;;;;0.30;0.30;;;9.80;99.90;;;10.17;nan;99286.63;5013354;28;20652;-73
2022/03/30 08:55:02;;;;;;;40.17;18.03;;;9.90;99.90;;;10.07;nan;99291.84;5027243;28;20672;-72
2022/03/30 08:57:29;;;;;;;41.10;20.60;;;9.90;99.90;;;10.07;nan;99292.63;5017256;28;20632;-66
2022/03/30 09:00:09;;;;;;;43.60;22.40;;;9.90;99.90;;;10.10;nan;99286.31;5012016;28;20641;-70
2022/03/30 09:02:45;;;;;;;28.17;12.90;;;9.90;99.90;;;10.14;nan;99282.50;5027376;28;20652;-70
2022/03/30 09:05:25;;;;;;;50.43;25.67;;;10.00;99.90;;;10.01;nan;99292.38;5030317;28;21206;-70
2022/03/30 09:08:14;;;;;;;44.90;19.80;;;9.80;99.90;;;9.92;nan;99280.19;5011776;28;20640;-70
2022/03/30 09:10:47;;;;;;;52.47;26.60;;;9.70;99.90;;;9.89;nan;99288.28;5010245;28;20633;-73
2022/03/30 09:13:19;;;;;;;47.27;20.90;;;9.70;99.90;;;9.90;nan;99287.31;5009959;28;21361;-70
2022/03/30 09:15:49;;;;;;;45.63;21.10;;;9.70;99.90;;;9.85;nan;99281.69;5024558;28;20687;-70
2022/03/30 09:18:17;;;;;;;25.73;10.80;;;9.60;99.90;;;9.98;nan;99292.66;5010298;28;20626;-70
2022/03/30 09:20:48;;;;;;;24.13;10.27;;;9.80;99.90;;;10.01;nan;99292.38;5026433;28;20660;-70
2022/03/30 09:23:20;;;;;;;44.43;20.90;;;9.80;99.90;;;9.95;nan;99288.53;5012149;28;20655;-70
2022/03/30 09:25:50;;;;;;;29.23;13.77;;;9.80;99.90;;;9.99;nan;99284.69;5029583;28;20620;-74
2022/03/30 09:28:21;;;;;;;48.30;20.67;;;9.80;99.90;;;9.99;nan;99292.50;5021224;28;20640;-71
2022/03/30 09:30:49;;;;;;;36.20;15.83;;;9.80;99.90;;;10.08;nan;99288.25;5029310;28;20989;-71
2022/03/30 09:33:19;;;;;;;37.13;16.57;;;9.80;99.90;;;10.06;nan;99292.78;5008096;28;20672;-71
2022/03/30 09:35:47;;;;;;;44.07;19.70;;;9.80;99.90;;;10.14;nan;99287.72;5026205;28;20672;-71
2022/03/30 09:38:20;;;;;;;40.20;18.97;;;9.90;99.90;;;10.14;nan;99290.31;5010770;28;21287;-71
2022/03/30 09:40:54;;;;;;;41.53;17.53;;;9.90;99.90;;;10.24;nan;99293.75;5011237;28;20638;-73
2022/03/30 09:43:34;;;;;;;45.47;19.47;;;10.10;99.90;;;10.11;nan;99288.03;5009965;28;20682;-69
2022/03/30 09:46:04;;;;;;;43.83;21.50;;;10.00;99.90;;;10.18;nan;99288.28;5012462;28;21180;-71
2022/03/30 09:48:39;;;;;;;48.17;22.43;;;10.00;99.90;;;10.30;nan;99280.16;5031624;28;21199;-67
2022/03/30 09:51:08;;;;;;;39.10;15.90;;;10.10;99.90;;;10.33;nan;99285.06;5032728;28;20632;-73
2022/03/30 09:53:36;;;;;;;27.00;12.77;;;10.10;99.90;;;10.16;nan;99280.59;5014115;28;20668;-70
2022/03/30 09:56:12;;;;;;;37.17;15.40;;;10.10;99.90;;;10.13;nan;99278.28;5015642;28;20656;-71
2022/03/30 09:58:40;;;;;;;46.57;19.73;;;10.10;99.90;;;10.16;nan;99275.38;4993533;28;20641;-71
2022/03/30 10:01:16;;;;;;;32.77;15.10;;;10.10;99.90;;;10.24;nan;99282.50;5032486;28;20638;-71
2022/03/30 10:03:59;;;;;;;42.97;18.40;;;10.10;99.90;;;10.33;nan;99277.25;5032078;28;20651;-70
2022/03/30 10:06:35;;;;;;;42.80;20.57;;;10.20;99.90;;;10.38;nan;99277.66;5032348;28;21183;-70
2022/03/30 10:09:06;;;;;;;42.83;20.83;;;10.30;99.90;;;10.33;nan;99259.00;5001619;28;20648;-72
2022/03/30 10:11:33;;;;;;;42.87;19.77;;;10.30;99.90;;;10.42;nan;99263.38;5023198;28;20635;-71
2022/03/30 10:14:05;;;;;;;42.37;19.30;;;10.30;99.90;;;10.52;nan;99271.97;5014106;28;21006;-72
2022/03/30 10:16:43;;;;;;;45.63;21.03;;;10.30;99.90;;;10.58;nan;99274.03;5033138;28;20670;-71
2022/03/30 10:19:10;;;;;;;42.33;20.10;;;10.40;99.90;;;10.69;nan;99262.59;5031264;28;20646;-72
2022/03/30 10:22:06;;;;;;;47.40;19.40;;;10.50;99.90;;;10.61;nan;99260.69;5031553;28;20639;-71
2022/03/30 10:25:09;;;;;;;37.90;17.67;;;10.50;99.90;;;10.70;nan;99257.25;5026495;28;20628;-71
2022/03/30 10:28:02;;;;;;;43.30;19.63;;;10.50;99.90;;;10.72;nan;99246.66;4998822;28;20632;-71
2022/03/30 10:30:31;;;;;;;43.80;17.63;;;10.60;99.90;;;10.77;nan;99240.06;5009401;28;20984;-72
2022/03/30 10:33:01;;;;;;;44.17;20.30;;;10.70;99.90;;;10.82;nan;99240.41;4999432;28;20664;-72
2022/03/30 10:35:43;;;;;;;48.60;21.80;;;10.70;99.90;;;10.79;nan;99238.13;5030011;28;20660;-68
2022/03/30 10:38:11;;;;;;;49.37;23.43;;;10.80;99.90;;;10.84;nan;99235.88;5031959;28;20628;-70
2022/03/30 10:40:39;;;;;;;46.73;24.80;;;10.80;99.90;;;10.94;nan;99236.63;5013273;28;21029;-69
2022/03/30 10:43:24;;;;;;;45.30;21.47;;;10.90;99.90;;;11.07;nan;99240.69;5015391;28;20663;-71
2022/03/30 10:45:59;;;;;;;33.93;13.70;;;11.00;99.90;;;11.12;nan;99247.13;5029989;28;20640;-71
2022/03/30 10:48:29;;;;;;;34.87;16.30;;;11.00;99.90;;;11.10;nan;99250.84;5031838;28;20932;-72
2022/03/30 10:51:15;;;;;;;37.90;20.20;;;11.10;99.90;;;11.12;nan;99247.13;5032320;28;20628;-73
2022/03/30 10:53:52;;;;;;;41.03;22.70;;;11.20;99.90;;;11.09;nan;99246.59;5031760;28;20673;-71
2022/03/30 10:56:20;;;;;;;32.83;17.07;;;11.00;99.90;;;11.12;nan;99248.91;5032080;28;20674;-71
2022/03/30 10:58:52;;;;;;;41.10;20.43;;;11.00;99.90;;;11.13;nan;99245.34;5032343;28;20639;-71
2022/03/30 11:01:27;;;;;;;30.10;15.10;;;11.10;99.90;;;11.37;nan;99240.38;5032631;28;20635;-71
2022/03/30 11:04:02;;;;;;;39.67;19.47;;;11.30;99.90;;;11.44;nan;99233.56;5031200;28;20702;-73
2022/03/30 11:06:35;;;;;;;44.60;21.30;;;11.40;99.90;;;11.33;nan;99226.75;5031412;28;21203;-70
2022/03/30 11:09:13;;;;;;;37.43;18.47;;;11.40;99.90;;;11.58;nan;99230.44;5031717;28;20636;-71
2022/03/30 11:11:43;;;;;;;36.40;16.10;;;11.50;99.90;;;11.87;nan;99231.03;5032717;28;20667;-73
2022/03/30 11:14:28;;;;;;;39.57;18.30;;;11.80;99.90;;;11.72;nan;99227.31;5023982;28;21204;-71
2022/03/30 11:17:30;;;;;;;33.17;14.63;;;11.80;99.90;;;11.92;nan;99227.97;4995032;28;20665;-71
2022/03/30 11:19:57;;;;;;;35.00;18.50;;;11.80;99.90;;;11.94;nan;99224.22;5010062;28;20632;-70
2022/03/30 11:22:36;;;;;;;32.87;16.10;;;12.00;99.90;;;12.05;nan;99218.72;5030976;28;21287;-70
2022/03/30 11:25:23;;;;;;;39.57;17.43;;;12.10;99.90;;;12.05;nan;99216.09;5013188;28;20636;-70
2022/03/30 11:28:01;;;;;;;32.73;15.63;;;12.10;99.90;;;12.12;nan;99219.75;5031138;28;20641;-71
2022/03/30 11:30:31;;;;;;;33.80;17.27;;;12.20;99.90;;;12.15;nan;99219.47;5030466;28;20637;-71
2022/03/30 11:33:21;;;;;;;23.93;10.67;;;12.10;99.90;;;12.36;nan;99211.22;5027315;28;20649;-71
2022/03/30 11:35:49;;;;;;;37.00;19.73;;;12.30;99.90;;;12.18;nan;99208.69;5030570;28;20669;-74
2022/03/30 11:38:24;;;;;;;16.53;7.80;;;12.30;99.90;;;12.24;nan;99202.84;5030992;28;20620;-71
2022/03/30 11:41:08;;;;;;;23.47;9.83;;;12.50;99.90;;;12.53;nan;99207.72;5031048;28;20689;-71
2022/03/30 11:46:30;;;;;;;33.33;18.30;;;12.90;99.90;;;12.92;nan;99208.03;5013541;28;20636;-72
2022/03/30 11:49:04;;;;;;;36.87;16.63;;;13.20;99.90;;;13.17;nan;99205.34;5024343;28;20646;-72
2022/03/30 11:51:32;;;;;;;30.33;13.33;;;13.30;99.90;;;13.24;nan;99203.69;5030326;28;20616;-73
2022/03/30 11:54:19;;;;;;;36.50;20.87;;;13.50;99.90;;;13.18;nan;99204.34;5012271;28;20634;-68
2022/03/30 11:56:51;;;;;;;35.20;18.30;;;13.40;99.90;;;13.04;nan;99209.38;5013052;28;20688;-69
2022/03/30 11:59:19;;;;;;;35.37;15.87;;;13.30;99.90;;;13.08;nan;99197.63;5012593;28;21196;-70
2022/03/30 12:01:47;;;;;;;32.40;15.60;;;13.20;99.90;;;13.03;nan;99199.88;5030032;28;20657;-70
2022/03/30 12:04:14;;;;;;;29.73;19.47;;;13.20;99.90;;;13.10;nan;99200.91;5030448;28;21183;-73
2022/03/30 12:06:47;;;;;;;25.70;11.20;;;13.20;99.90;;;13.22;nan;99199.63;5028773;28;20637;-70
2022/03/30 12:09:17;;;;;;;23.80;11.40;;;13.20;99.90;;;13.27;nan;99202.56;5013173;28;20629;-70
2022/03/30 12:11:45;;;;;;;35.20;16.90;;;13.30;99.90;;;13.20;nan;99193.75;5029233;28;20664;-71
2022/03/30 12:14:12;;;;;;;31.73;16.53;;;13.30;99.90;;;13.19;nan;99192.91;5012596;28;21199;-70
2022/03/30 12:16:40;;;;;;;33.97;18.17;;;13.20;99.90;;;13.12;nan;99194.53;5025658;28;20661;-70
2022/03/30 12:19:08;;;;;;;29.10;15.23;;;13.10;99.90;;;12.64;nan;99180.47;4993805;28;21201;-70
2022/03/30 12:21:38;;;;;;;32.00;20.23;;;12.80;99.90;;;12.56;nan;99186.50;5000632;28;20647;-71
2022/03/30 12:24:09;;;;;;;29.97;15.83;;;12.60;99.90;;;12.54;nan;99192.84;5031322;28;20674;-69
2022/03/30 12:26:52;;;;;;;31.80;16.37;;;12.50;99.90;;;12.43;nan;99188.72;5029984;28;21032;-71
2022/03/30 12:29:20;;;;;;;31.40;17.80;;;12.30;99.90;;;12.18;nan;99190.38;5010732;28;20632;-72
2022/03/30 12:31:57;;;;;;;29.80;16.20;;;12.20;99.90;;;12.27;nan;99192.06;5017661;28;20656;-69
2022/03/30 12:34:26;;;;;;;35.33;17.20;;;12.10;99.90;;;12.41;nan;99188.06;5002619;28;20660;-66
2022/03/30 12:37:00;;;;;;;36.63;19.53;;;12.30;99.90;;;12.39;nan;99201.28;4996459;28;20679;-69
2022/03/30 12:39:38;;;;;;;32.27;18.20;;;12.30;99.90;;;12.29;nan;99189.28;5005338;28;20974;-69
2022/03/30 12:42:23;;;;;;;38.33;19.57;;;12.30;99.90;;;11.95;nan;99191.88;5010577;28;21271;-68
2022/03/30 12:45:02;;;;;;;28.90;13.23;;;12.00;99.90;;;12.19;nan;99189.41;4999354;28;20659;-70
2022/03/30 12:47:32;;;;;;;34.37;15.87;;;12.00;99.90;;;12.34;nan;99187.03;4996052;28;21044;-67
2022/03/30 12:50:13;;;;;;;30.73;14.90;;;12.30;99.90;;;12.48;nan;99187.25;5010371;28;20613;-70
2022/03/30 12:52:48;;;;;;;33.67;15.67;;;12.40;99.90;;;12.61;nan;99178.97;4992483;28;20646;-73
2022/03/30 12:55:34;;;;;;;31.57;19.00;;;12.60;99.90;;;12.61;nan;99178.16;5030996;28;20620;-72
2022/03/30 12:58:14;;;;;;;30.23;15.80;;;12.60;99.90;;;12.80;nan;99183.16;5012162;28;20629;-70
2022/03/30 13:00:45;;;;;;;30.10;16.70;;;12.80;99.90;;;12.91;nan;99182.81;5013081;28;20990;-70
2022/03/30 13:03:27;;;;;;;30.37;17.20;;;12.90;99.90;;;13.01;nan;99183.53;5028919;28;20668;-71
2022/03/30 13:06:19;;;;;;;31.63;18.10;;;13.00;99.90;;;13.13;nan;99177.03;5029957;28;21265;-72
2022/03/30 13:09:22;;;;;;;30.50;16.90;;;13.20;99.90;;;12.92;nan;99171.38;5012239;28;20643;-68
2022/03/30 13:11:49;;;;;;;28.17;14.07;;;13.10;99.90;;;13.17;nan;99173.09;4987670;28;21261;-70
2022/03/30 13:14:19;;;;;;;27.87;16.70;;;13.20;99.90;;;13.32;nan;99170.66;5003699;28;20636;-68
2022/03/30 13:17:06;;;;;;;25.20;13.97;;;13.40;99.90;;;13.26;nan;99161.66;4992806;28;21084;-70
2022/03/30 13:19:33;;;;;;;29.30;15.97;;;13.40;99.90;;;13.36;nan;99154.44;5000281;28;20639;-70
2022/03/30 13:22:00;;;;;;;10.87;5.87;;;13.50;99.90;;;13.62;nan;99160.34;5027885;28;21236;-69
2022/03/30 13:24:30;;;;;;;26.97;13.03;;;13.70;99.90;;;13.16;nan;99150.53;5020072;28;20633;-70
2022/03/30 13:27:03;;;;;;;22.50;12.57;;;13.30;99.90;;;13.01;nan;99147.66;5012859;28;20632;-72
2022/03/30 13:29:35;;;;;;;32.60;16.30;;;13.10;99.90;;;12.97;nan;99138.50;5009042;28;20636;-73
2022/03/30 13:32:02;;;;;;;29.50;17.00;;;13.10;99.90;;;13.14;nan;99145.44;4992792;28;20656;-75
2022/03/30 13:34:30;;;;;;;35.67;17.87;;;13.10;99.90;;;13.18;nan;99132.84;5013456;28;20660;-72
2022/03/30 13:36:57;;;;;;;31.77;21.13;;;13.20;99.90;;;13.06;nan;99131.50;5012015;28;20664;-71
2022/03/30 13:39:24;;;;;;;33.30;16.00;;;13.20;99.90;;;13.04;nan;99134.28;5028728;28;20639;-73
2022/03/30 13:41:53;;;;;;;32.10;16.73;;;13.10;99.90;;;13.08;nan;99133.00;5010787;28;20679;-72
2022/03/30 13:44:22;;;;;;;27.57;16.97;;;13.10;99.90;;;12.89;nan;99130.63;5002085;28;20630;-72
2022/03/30 13:46:50;;;;;;;28.50;16.10;;;13.00;99.90;;;12.76;nan;99138.13;5014386;28;21195;-71
2022/03/30 13:49:40;;;;;;;27.23;17.63;;;12.80;99.90;;;12.81;nan;99124.56;5011086;28;20633;-71
2022/03/30 13:52:08;;;;;;;28.60;16.30;;;12.70;99.90;;;12.87;nan;99118.69;4997143;28;20664;-72
2022/03/30 13:54:35;;;;;;;5.67;3.03;;;12.70;99.90;;;12.84;nan;99119.03;5028461;28;20701;-73
2022/03/30 13:57:02;;;;;;;23.73;14.57;;;12.70;99.90;;;12.85;nan;99112.78;5011002;28;21281;-70
2022/03/30 13:59:29;;;;;;;27.27;12.90;;;12.80;99.90;;;12.69;nan;99118.81;5008828;28;20698;-69
2022/03/30 14:01:56;;;;;;;25.23;13.20;;;12.60;99.90;;;12.77;nan;99116.22;5015429;28;20657;-72
2022/03/30 14:04:24;;;;;;;23.60;12.10;;;12.70;99.90;;;12.89;nan;99114.09;5021642;28;20636;-72
2022/03/30 14:06:51;;;;;;;2.23;2.03;;;12.70;99.90;;;12.82;nan;99111.31;5011587;28;20636;-71
2022/03/30 14:09:18;;;;;;;27.60;14.47;;;12.70;99.90;;;12.94;nan;99102.19;5028718;28;20640;-72
2022/03/30 14:11:45;;;;;;;24.53;14.00;;;12.80;99.90;;;12.83;nan;99102.50;5020751;28;21035;-70
2022/03/30 14:14:12;;;;;;;25.00;11.47;;;12.80;99.90;;;12.95;nan;99103.00;5028619;28;20644;-70
2022/03/30 14:16:39;;;;;;;4.60;3.13;;;12.90;99.90;;;12.98;nan;99108.75;5021587;28;21290;-70
2022/03/30 14:19:07;;;;;;;24.00;13.00;;;12.90;99.90;;;13.08;nan;99098.94;5028336;28;20644;-70
2022/03/30 14:21:34;;;;;;;13.47;7.23;;;12.90;99.90;;;13.15;nan;99104.34;5032257;28;20608;-71
2022/03/30 14:24:07;;;;;;;19.23;7.10;;;13.00;99.90;;;13.09;nan;99097.97;5010190;28;20637;-70
2022/03/30 14:26:34;;;;;;;19.80;11.73;;;13.10;99.90;;;13.16;nan;99100.78;5031581;28;20637;-73
2022/03/30 14:29:01;;;;;;;21.17;14.03;;;13.10;99.90;;;13.02;nan;99093.50;5032958;28;20639;-70
2022/03/30 14:31:28;;;;;;;20.17;12.13;;;13.00;99.90;;;13.13;nan;99090.59;5014125;28;20644;-73
2022/03/30 14:33:55;;;;;;;23.53;12.30;;;13.00;99.90;;;13.16;nan;99091.09;5010578;28;20656;-71
2022/03/30 14:36:22;;;;;;;16.93;11.70;;;13.10;99.90;;;13.10;nan;99096.16;5027222;28;20699;-71
2022/03/30 14:38:49;;;;;;;19.20;13.87;;;13.10;99.90;;;12.98;nan;99084.34;4987021;28;20633;-74